<?xml version="1.0" encoding="UTF-8" standalone="no" ?><gpx xmlns="http://www.topografix.com/GPX/1/1" xmlns:gpxx="http://www.garmin.com/xmlschemas/GpxExtensions/v3" xmlns:gpxtrkx="http://www.garmin.com/xmlschemas/TrackStatsExtension/v1" xmlns:wptx1="http://www.garmin.com/xmlschemas/WaypointExtension/v1" xmlns:gpxtpx="http://www.garmin.com/xmlschemas/TrackPointExtension/v1" creator="Montana 680t" version="1.1" xmlns:xsi="http://www.w3.org/2001/XMLSchema-instance" xsi:schemaLocation="http://www.topografix.com/GPX/1/1 http://www.topografix.com/GPX/1/1/gpx.xsd http://www.garmin.com/xmlschemas/GpxExtensions/v3 http://www8.garmin.com/xmlschemas/GpxExtensionsv3.xsd http://www.garmin.com/xmlschemas/TrackStatsExtension/v1 http://www8.garmin.com/xmlschemas/TrackStatsExtension.xsd http://www.garmin.com/xmlschemas/WaypointExtension/v1 http://www8.garmin.com/xmlschemas/WaypointExtensionv1.xsd http://www.garmin.com/xmlschemas/TrackPointExtension/v1 http://www.garmin.com/xmlschemas/TrackPointExtensionv1.xsd"><metadata><link href="http://www.garmin.com"><text>Garmin International</text></link><time>2021-05-23T01:54:39Z</time></metadata><trk><name>2021-05-23 11:54:36</name><extensions><gpxx:TrackExtension><gpxx:DisplayColor>Cyan</gpxx:DisplayColor></gpxx:TrackExtension><gpxtrkx:TrackStatsExtension><gpxtrkx:Distance>5262</gpxtrkx:Distance><gpxtrkx:TimerTime>1497</gpxtrkx:TimerTime><gpxtrkx:TotalElapsedTime>1502</gpxtrkx:TotalElapsedTime><gpxtrkx:MovingTime>1189</gpxtrkx:MovingTime><gpxtrkx:StoppedTime>309</gpxtrkx:StoppedTime><gpxtrkx:MovingSpeed>4</gpxtrkx:MovingSpeed><gpxtrkx:MaxSpeed>8</gpxtrkx:MaxSpeed><gpxtrkx:MaxElevation>937</gpxtrkx:MaxElevation><gpxtrkx:MinElevation>268</gpxtrkx:MinElevation><gpxtrkx:Ascent>1036</gpxtrkx:Ascent><gpxtrkx:Descent>644</gpxtrkx:Descent><gpxtrkx:AvgAscentRate>0</gpxtrkx:AvgAscentRate><gpxtrkx:MaxAscentRate>9</gpxtrkx:MaxAscentRate><gpxtrkx:AvgDescentRate>0</gpxtrkx:AvgDescentRate><gpxtrkx:MaxDescentRate>-4</gpxtrkx:MaxDescentRate><gpxtrkx:Calories>343</gpxtrkx:Calories></gpxtrkx:TrackStatsExtension></extensions><trkseg><trkpt lat="-37.3283770401" lon="146.0723883100"><ele>562.65</ele><time>2021-05-23T01:30:38Z</time></trkpt><trkpt lat="-37.3287336063" lon="146.0724300519"><ele>566.60</ele><time>2021-05-23T01:33:45Z</time></trkpt><trkpt lat="-37.3289983906" lon="146.0727763083"><ele>571.13</ele><time>2021-05-23T01:33:54Z</time></trkpt><trkpt lat="-37.3292313237" lon="146.0731310304"><ele>577.21</ele><time>2021-05-23T01:34:03Z</time></trkpt><trkpt lat="-37.3295067530" lon="146.0734470282"><ele>582.33</ele><time>2021-05-23T01:34:09Z</time></trkpt><trkpt lat="-37.3298252653" lon="146.0737282410"><ele>591.67</ele><time>2021-05-23T01:34:17Z</time></trkpt><trkpt lat="-37.3301351443" lon="146.0740859807"><ele>601.41</ele><time>2021-05-23T01:34:25Z</time></trkpt><trkpt lat="-37.3303829972" lon="146.0744126234"><ele>608.22</ele><time>2021-05-23T01:34:32Z</time></trkpt><trkpt lat="-37.3307479452" lon="146.0745792557"><ele>614.36</ele><time>2021-05-23T01:34:39Z</time></trkpt><trkpt lat="-37.3310613446" lon="146.0748463869"><ele>619.61</ele><time>2021-05-23T01:34:47Z</time></trkpt><trkpt lat="-37.3314281367" lon="146.0750424396"><ele>629.30</ele><time>2021-05-23T01:34:56Z</time></trkpt><trkpt lat="-37.3317566235" lon="146.0753427632"><ele>635.20</ele><time>2021-05-23T01:35:04Z</time></trkpt><trkpt lat="-37.3319815099" lon="146.0757873394"><ele>639.82</ele><time>2021-05-23T01:35:11Z</time></trkpt><trkpt lat="-37.3322782293" lon="146.0761362780"><ele>644.38</ele><time>2021-05-23T01:35:17Z</time></trkpt><trkpt lat="-37.3326270841" lon="146.0764237773"><ele>650.04</ele><time>2021-05-23T01:35:24Z</time></trkpt><trkpt lat="-37.3329921160" lon="146.0765398666"><ele>656.46</ele><time>2021-05-23T01:35:31Z</time></trkpt><trkpt lat="-37.3333737440" lon="146.0765376035"><ele>663.45</ele><time>2021-05-23T01:35:39Z</time></trkpt><trkpt lat="-37.3337711301" lon="146.0765921697"><ele>670.13</ele><time>2021-05-23T01:35:47Z</time></trkpt><trkpt lat="-37.3340437096" lon="146.0769643262"><ele>675.10</ele><time>2021-05-23T01:35:55Z</time></trkpt><trkpt lat="-37.3342742957" lon="146.0773848463"><ele>680.96</ele><time>2021-05-23T01:36:03Z</time></trkpt><trkpt lat="-37.3343252577" lon="146.0778500419"><ele>686.57</ele><time>2021-05-23T01:36:11Z</time></trkpt><trkpt lat="-37.3342343140" lon="146.0783010721"><ele>692.89</ele><time>2021-05-23T01:36:26Z</time></trkpt><trkpt lat="-37.3343944084" lon="146.0787878931"><ele>699.03</ele><time>2021-05-23T01:36:36Z</time></trkpt><trkpt lat="-37.3343524151" lon="146.0792905558"><ele>704.76</ele><time>2021-05-23T01:36:44Z</time></trkpt><trkpt lat="-37.3344657384" lon="146.0798288416"><ele>710.84</ele><time>2021-05-23T01:36:53Z</time></trkpt><trkpt lat="-37.3347676545" lon="146.0801972263"><ele>717.10</ele><time>2021-05-23T01:37:01Z</time></trkpt><trkpt lat="-37.3349835724" lon="146.0806330852"><ele>722.14</ele><time>2021-05-23T01:37:11Z</time></trkpt><trkpt lat="-37.3352391366" lon="146.0809872206"><ele>728.34</ele><time>2021-05-23T01:37:19Z</time></trkpt><trkpt lat="-37.3355721496" lon="146.0811810102"><ele>734.85</ele><time>2021-05-23T01:37:28Z</time></trkpt><trkpt lat="-37.3354735784" lon="146.0815462936"><ele>736.98</ele><time>2021-05-23T01:37:39Z</time></trkpt><trkpt lat="-37.3352300841" lon="146.0818898678"><ele>736.69</ele><time>2021-05-23T01:37:46Z</time></trkpt><trkpt lat="-37.3352442496" lon="146.0823573265"><ele>733.18</ele><time>2021-05-23T01:37:53Z</time></trkpt><trkpt lat="-37.3354527913" lon="146.0827812832"><ele>729.79</ele><time>2021-05-23T01:38:00Z</time></trkpt><trkpt lat="-37.3356168251" lon="146.0832498316"><ele>728.97</ele><time>2021-05-23T01:38:08Z</time></trkpt><trkpt lat="-37.3357014824" lon="146.0837223195"><ele>728.11</ele><time>2021-05-23T01:38:15Z</time></trkpt><trkpt lat="-37.3357197549" lon="146.0842087213"><ele>725.64</ele><time>2021-05-23T01:38:22Z</time></trkpt><trkpt lat="-37.3358057532" lon="146.0846917704"><ele>723.90</ele><time>2021-05-23T01:38:29Z</time></trkpt><trkpt lat="-37.3357266281" lon="146.0851771664"><ele>721.99</ele><time>2021-05-23T01:38:38Z</time></trkpt><trkpt lat="-37.3357754946" lon="146.0856266040"><ele>721.92</ele><time>2021-05-23T01:38:46Z</time></trkpt><trkpt lat="-37.3360651731" lon="146.0859671608"><ele>721.89</ele><time>2021-05-23T01:38:53Z</time></trkpt><trkpt lat="-37.3363366630" lon="146.0863563325"><ele>725.32</ele><time>2021-05-23T01:39:01Z</time></trkpt><trkpt lat="-37.3365742899" lon="146.0867273994"><ele>729.53</ele><time>2021-05-23T01:39:09Z</time></trkpt><trkpt lat="-37.3366342206" lon="146.0871886555"><ele>733.81</ele><time>2021-05-23T01:39:18Z</time></trkpt><trkpt lat="-37.3364214040" lon="146.0876120254"><ele>735.28</ele><time>2021-05-23T01:39:27Z</time></trkpt><trkpt lat="-37.3363012914" lon="146.0881035402"><ele>736.04</ele><time>2021-05-23T01:39:35Z</time></trkpt><trkpt lat="-37.3362593818" lon="146.0886240564"><ele>736.93</ele><time>2021-05-23T01:39:42Z</time></trkpt><trkpt lat="-37.3362893052" lon="146.0891103745"><ele>738.94</ele><time>2021-05-23T01:39:49Z</time></trkpt><trkpt lat="-37.3361258581" lon="146.0895401984"><ele>740.70</ele><time>2021-05-23T01:39:57Z</time></trkpt><trkpt lat="-37.3357992992" lon="146.0897741374"><ele>742.22</ele><time>2021-05-23T01:40:06Z</time></trkpt><trkpt lat="-37.3354046792" lon="146.0898671765"><ele>743.65</ele><time>2021-05-23T01:40:24Z</time></trkpt><trkpt lat="-37.3350416590" lon="146.0900936555"><ele>743.53</ele><time>2021-05-23T01:40:32Z</time></trkpt><trkpt lat="-37.3347133398" lon="146.0904060490"><ele>743.42</ele><time>2021-05-23T01:40:47Z</time></trkpt><trkpt lat="-37.3346914630" lon="146.0909473523"><ele>743.37</ele><time>2021-05-23T01:40:55Z</time></trkpt><trkpt lat="-37.3346843384" lon="146.0914262105"><ele>743.35</ele><time>2021-05-23T01:41:05Z</time></trkpt><trkpt lat="-37.3345853481" lon="146.0918964352"><ele>743.33</ele><time>2021-05-23T01:41:17Z</time></trkpt><trkpt lat="-37.3342882935" lon="146.0922099184"><ele>743.27</ele><time>2021-05-23T01:41:25Z</time></trkpt><trkpt lat="-37.3339164723" lon="146.0924591124"><ele>739.54</ele><time>2021-05-23T01:41:33Z</time></trkpt><trkpt lat="-37.3337132111" lon="146.0928174388"><ele>736.18</ele><time>2021-05-23T01:41:42Z</time></trkpt><trkpt lat="-37.3339696135" lon="146.0931942891"><ele>736.16</ele><time>2021-05-23T01:41:49Z</time></trkpt><trkpt lat="-37.3342494015" lon="146.0935683735"><ele>735.42</ele><time>2021-05-23T01:41:58Z</time></trkpt><trkpt lat="-37.3340686038" lon="146.0939713754"><ele>735.40</ele><time>2021-05-23T01:42:17Z</time></trkpt><trkpt lat="-37.3337328248" lon="146.0942960903"><ele>731.88</ele><time>2021-05-23T01:42:40Z</time></trkpt><trkpt lat="-37.3333817907" lon="146.0945431888"><ele>729.20</ele><time>2021-05-23T01:42:52Z</time></trkpt><trkpt lat="-37.3333084490" lon="146.0949227214"><ele>727.52</ele><time>2021-05-23T01:43:04Z</time></trkpt><trkpt lat="-37.3336294759" lon="146.0952139087"><ele>729.71</ele><time>2021-05-23T01:43:13Z</time></trkpt><trkpt lat="-37.3339160532" lon="146.0955499392"><ele>731.32</ele><time>2021-05-23T01:43:22Z</time></trkpt><trkpt lat="-37.3342569452" lon="146.0954635218"><ele>733.24</ele><time>2021-05-23T01:43:30Z</time></trkpt><trkpt lat="-37.3346123379" lon="146.0956626758"><ele>736.78</ele><time>2021-05-23T01:43:41Z</time></trkpt><trkpt lat="-37.3348872643" lon="146.0960730538"><ele>736.62</ele><time>2021-05-23T01:43:52Z</time></trkpt><trkpt lat="-37.3350850772" lon="146.0964650754"><ele>736.52</ele><time>2021-05-23T01:44:00Z</time></trkpt><trkpt lat="-37.3354457505" lon="146.0967345536"><ele>733.16</ele><time>2021-05-23T01:44:09Z</time></trkpt><trkpt lat="-37.3357028235" lon="146.0971011780"><ele>733.09</ele><time>2021-05-23T01:44:18Z</time></trkpt><trkpt lat="-37.3359453119" lon="146.0967086535"><ele>732.28</ele><time>2021-05-23T01:44:32Z</time></trkpt><trkpt lat="-37.3361448012" lon="146.0962851997"><ele>735.39</ele><time>2021-05-23T01:44:43Z</time></trkpt><trkpt lat="-37.3363927379" lon="146.0959069245"><ele>737.64</ele><time>2021-05-23T01:44:51Z</time></trkpt><trkpt lat="-37.3366938997" lon="146.0955502745"><ele>741.61</ele><time>2021-05-23T01:45:00Z</time></trkpt><trkpt lat="-37.3370259069" lon="146.0953253042"><ele>744.36</ele><time>2021-05-23T01:45:08Z</time></trkpt><trkpt lat="-37.3373937886" lon="146.0954170860"><ele>747.09</ele><time>2021-05-23T01:45:17Z</time></trkpt><trkpt lat="-37.3376158252" lon="146.0958210938"><ele>746.99</ele><time>2021-05-23T01:45:36Z</time></trkpt><trkpt lat="-37.3377604131" lon="146.0962712858"><ele>747.69</ele><time>2021-05-23T01:45:46Z</time></trkpt><trkpt lat="-37.3380557913" lon="146.0963864531"><ele>749.28</ele><time>2021-05-23T01:45:56Z</time></trkpt><trkpt lat="-37.3384100106" lon="146.0961977765"><ele>750.00</ele><time>2021-05-23T01:46:03Z</time></trkpt><trkpt lat="-37.3387948237" lon="146.0963110160"><ele>753.59</ele><time>2021-05-23T01:46:13Z</time></trkpt><trkpt lat="-37.3391526472" lon="146.0965670832"><ele>756.17</ele><time>2021-05-23T01:46:22Z</time></trkpt><trkpt lat="-37.3394684773" lon="146.0963073280"><ele>756.80</ele><time>2021-05-23T01:46:32Z</time></trkpt><trkpt lat="-37.3396960460" lon="146.0958656855"><ele>760.91</ele><time>2021-05-23T01:46:41Z</time></trkpt><trkpt lat="-37.3400793504" lon="146.0956038348"><ele>765.69</ele><time>2021-05-23T01:46:49Z</time></trkpt><trkpt lat="-37.3404804245" lon="146.0955221951"><ele>771.02</ele><time>2021-05-23T01:46:57Z</time></trkpt><trkpt lat="-37.3408595379" lon="146.0954888351"><ele>775.06</ele><time>2021-05-23T01:47:06Z</time></trkpt><trkpt lat="-37.3412372265" lon="146.0953937005"><ele>778.37</ele><time>2021-05-23T01:47:15Z</time></trkpt><trkpt lat="-37.3413273320" lon="146.0949754436"><ele>781.48</ele><time>2021-05-23T01:47:23Z</time></trkpt><trkpt lat="-37.3414670583" lon="146.0945792310"><ele>782.97</ele><time>2021-05-23T01:47:32Z</time></trkpt><trkpt lat="-37.3418557271" lon="146.0945210606"><ele>783.89</ele><time>2021-05-23T01:47:41Z</time></trkpt><trkpt lat="-37.3423020635" lon="146.0945286881"><ele>786.26</ele><time>2021-05-23T01:47:55Z</time></trkpt><trkpt lat="-37.3427349888" lon="146.0945395846"><ele>789.07</ele><time>2021-05-23T01:48:06Z</time></trkpt><trkpt lat="-37.3431215622" lon="146.0943996068"><ele>789.03</ele><time>2021-05-23T01:48:14Z</time></trkpt><trkpt lat="-37.3432959057" lon="146.0948415007"><ele>787.42</ele><time>2021-05-23T01:48:25Z</time></trkpt><trkpt lat="-37.3434606940" lon="146.0952604283"><ele>784.22</ele><time>2021-05-23T01:48:32Z</time></trkpt><trkpt lat="-37.3431956582" lon="146.0956262145"><ele>780.31</ele><time>2021-05-23T01:48:41Z</time></trkpt><trkpt lat="-37.3428426124" lon="146.0957812797"><ele>777.11</ele><time>2021-05-23T01:48:49Z</time></trkpt><trkpt lat="-37.3427304626" lon="146.0962311365"><ele>772.88</ele><time>2021-05-23T01:49:01Z</time></trkpt><trkpt lat="-37.3428342305" lon="146.0967468750"><ele>769.66</ele><time>2021-05-23T01:49:08Z</time></trkpt><trkpt lat="-37.3426780757" lon="146.0972006712"><ele>766.56</ele><time>2021-05-23T01:49:17Z</time></trkpt><trkpt lat="-37.3423477449" lon="146.0974491946"><ele>764.11</ele><time>2021-05-23T01:49:26Z</time></trkpt><trkpt lat="-37.3423521034" lon="146.0979357641"><ele>761.43</ele><time>2021-05-23T01:49:35Z</time></trkpt><trkpt lat="-37.3421769217" lon="146.0983647499"><ele>757.83</ele><time>2021-05-23T01:49:45Z</time></trkpt><trkpt lat="-37.3420912586" lon="146.0987187177"><ele>754.19</ele><time>2021-05-23T01:49:55Z</time></trkpt><trkpt lat="-37.3423173185" lon="146.0991308559"><ele>750.13</ele><time>2021-05-23T01:50:04Z</time></trkpt><trkpt lat="-37.3421428073" lon="146.0995474365"><ele>748.21</ele><time>2021-05-23T01:50:15Z</time></trkpt><trkpt lat="-37.3418728262" lon="146.0998883285"><ele>744.91</ele><time>2021-05-23T01:50:26Z</time></trkpt><trkpt lat="-37.3421280552" lon="146.1001959443"><ele>742.11</ele><time>2021-05-23T01:50:35Z</time></trkpt><trkpt lat="-37.3423948511" lon="146.1005103495"><ele>737.11</ele><time>2021-05-23T01:50:43Z</time></trkpt><trkpt lat="-37.3425117787" lon="146.1009999365"><ele>734.95</ele><time>2021-05-23T01:50:52Z</time></trkpt><trkpt lat="-37.3425775766" lon="146.1014879309"><ele>732.06</ele><time>2021-05-23T01:51:01Z</time></trkpt><trkpt lat="-37.3429493979" lon="146.1016027629"><ele>730.31</ele><time>2021-05-23T01:51:11Z</time></trkpt><trkpt lat="-37.3433518969" lon="146.1015657149"><ele>727.89</ele><time>2021-05-23T01:51:20Z</time></trkpt><trkpt lat="-37.3437616881" lon="146.1014640424"><ele>723.48</ele><time>2021-05-23T01:51:29Z</time></trkpt><trkpt lat="-37.3441737425" lon="146.1015634518"><ele>718.95</ele><time>2021-05-23T01:52:14Z</time></trkpt><trkpt lat="-37.3442199267" lon="146.1015595123"><ele>708.46</ele><time>2021-05-23T01:54:36Z</time></trkpt></trkseg></trk></gpx>